Time,TemperatureF,DewpointF,PressureIn,WindDirection,WindDirectionDegrees,WindSpeedMPH,WindSpeedGustMPH,Humidity,HourlyPrecipIn,Conditions,Clouds,dailyrainin,SolarRadiationWatts/m^2,SoftwareType,DateUTC
2013-02-02 00:01:00,32.0,32.0,-100.00,WNW,286,0.0,1.0,100,0.00,,,0.00,0.000000,,2013-02-02 09:01:00,
2013-02-02 00:11:00,32.0,32.0,-100.00,WNW,286,0.0,1.0,100,0.00,,,0.00,0.000000,,2013-02-02 09:11:00,
2013-02-02 00:22:00,32.0,32.0,-100.00,WNW,286,0.0,1.0,100,0.00,,,0.00,0.000000,,2013-02-02 09:22:00,
2013-02-02 00:42:00,32.0,32.0,-100.00,West,281,0.0,0.0,100,0.00,,,0.00,0.000000,,2013-02-02 09:42:00,
2013-02-02 00:52:00,32.0,32.0,-100.00,West,281,0.0,0.0,100,0.00,,,0.00,0.000000,,2013-02-02 09:52:00,
2013-02-02 01:01:00,32.0,32.0,-100.00,West,281,0.0,0.0,100,0.00,,,0.00,0.000000,,2013-02-02 10:01:00,
2013-02-02 01:11:00,32.0,32.0,-100.00,West,281,0.0,0.0,100,0.00,,,0.00,0.000000,,2013-02-02 10:11:00,
2013-02-02 01:21:00,32.0,32.0,-100.00,West,281,0.0,0.0,100,0.00,,,0.00,0.000000,,2013-02-02 10:21:00,
2013-02-02 01:42:00,32.0,32.0,-100.00,WNW,302,0.0,0.0,100,0.00,,,0.00,0.000000,,2013-02-02 10:42:00,
2013-02-02 01:52:00,32.0,32.0,-100.00,WNW,302,0.0,0.0,100,0.00,,,0.00,0.000000,,2013-02-02 10:52:00,
2013-02-02 02:01:00,32.0,32.0,-100.00,WNW,302,0.0,0.0,100,0.00,,,0.00,0.000000,,2013-02-02 11:01:00,
2013-02-02 02:11:00,32.0,32.0,-100.00,WNW,302,0.0,0.0,100,0.00,,,0.00,0.000000,,2013-02-02 11:11:00,
2013-02-02 02:21:00,32.0,32.0,-100.00,WNW,302,0.0,0.0,100,0.00,,,0.00,0.000000,,2013-02-02 11:21:00,
2013-02-02 02:42:00,32.0,32.0,-100.00,WNW,283,0.0,0.0,100,0.01,,,0.01,0.000000,,2013-02-02 11:42:00,
2013-02-02 02:52:00,32.0,32.0,-100.00,WNW,283,0.0,0.0,100,0.01,,,0.01,0.000000,,2013-02-02 11:52:00,
2013-02-02 03:01:00,32.0,32.0,-100.00,WNW,283,0.0,0.0,100,0.01,,,0.01,0.000000,,2013-02-02 12:01:00,
2013-02-02 03:11:00,32.0,32.0,-100.00,WNW,283,0.0,0.0,100,0.01,,,0.01,0.000000,,2013-02-02 12:11:00,
2013-02-02 03:22:00,32.0,32.0,-100.00,WNW,283,0.0,0.0,100,0.01,,,0.01,0.000000,,2013-02-02 12:22:00,
2013-02-02 03:42:00,32.0,32.0,-100.00,WSW,251,0.0,0.0,100,-99.99,,,0.00,0.000000,,2013-02-02 12:42:00,
2013-02-02 03:52:00,32.0,32.0,-100.00,WSW,251,0.0,0.0,100,-99.99,,,0.00,0.000000,,2013-02-02 12:52:00,
2013-02-02 04:02:00,32.0,32.0,-100.00,WSW,251,0.0,0.0,100,-99.99,,,0.00,0.000000,,2013-02-02 13:02:00,
2013-02-02 04:11:00,32.0,32.0,-100.00,WSW,251,0.0,0.0,100,-99.99,,,0.00,0.000000,,2013-02-02 13:11:00,
2013-02-02 04:21:00,32.0,32.0,-100.00,WSW,251,0.0,0.0,100,-99.99,,,0.00,0.000000,,2013-02-02 13:21:00,
2013-02-02 04:42:00,32.0,32.0,-100.00,West,267,0.0,0.0,100,0.01,,,0.01,0.000000,,2013-02-02 13:42:00,
2013-02-02 04:52:00,32.0,32.0,-100.00,West,267,0.0,0.0,100,0.01,,,0.01,0.000000,,2013-02-02 13:52:00,
2013-02-02 05:02:00,32.0,32.0,-100.00,West,267,0.0,0.0,100,0.01,,,0.01,0.000000,,2013-02-02 14:02:00,
2013-02-02 05:11:00,32.0,32.0,-100.00,West,267,0.0,0.0,100,0.01,,,0.01,0.000000,,2013-02-02 14:11:00,
2013-02-02 05:21:00,32.0,32.0,-100.00,West,267,0.0,0.0,100,0.01,,,0.01,0.000000,,2013-02-02 14:21:00,
2013-02-02 05:42:00,32.0,32.0,-100.00,WNW,289,0.0,0.0,100,0.01,,,0.02,0.000000,,2013-02-02 14:42:00,
2013-02-02 05:52:00,32.0,32.0,-100.00,WNW,289,0.0,0.0,100,0.01,,,0.02,0.000000,,2013-02-02 14:52:00,
2013-02-02 06:02:00,32.0,32.0,-100.00,WNW,289,0.0,0.0,100,0.01,,,0.02,0.000000,,2013-02-02 15:02:00,
2013-02-02 06:11:00,32.0,32.0,-100.00,WNW,289,0.0,0.0,100,0.01,,,0.02,0.000000,,2013-02-02 15:11:00,
2013-02-02 06:21:00,32.0,32.0,-100.00,WNW,289,0.0,0.0,100,0.01,,,0.02,0.000000,,2013-02-02 15:21:00,
2013-02-02 06:42:00,32.0,32.0,-100.00,WSW,254,0.0,0.0,100,0.00,,,0.02,0.000000,,2013-02-02 15:42:00,
2013-02-02 06:52:00,32.0,32.0,-100.00,WSW,254,0.0,0.0,100,0.00,,,0.02,0.000000,,2013-02-02 15:52:00,
2013-02-02 07:02:00,32.0,32.0,-100.00,WSW,254,0.0,0.0,100,0.00,,,0.02,0.000000,,2013-02-02 16:02:00,
2013-02-02 07:11:00,32.0,32.0,-100.00,WSW,254,0.0,0.0,100,0.00,,,0.02,0.000000,,2013-02-02 16:11:00,
2013-02-02 07:21:00,32.0,32.0,-100.00,WSW,254,0.0,0.0,100,0.00,,,0.02,0.000000,,2013-02-02 16:21:00,
2013-02-02 07:42:00,32.0,32.0,-100.00,WNW,286,0.0,0.0,100,0.01,,,0.03,0.000000,,2013-02-02 16:42:00,
2013-02-02 07:52:00,32.0,32.0,-100.00,WNW,286,0.0,0.0,100,0.01,,,0.03,0.000000,,2013-02-02 16:52:00,
2013-02-02 08:02:00,32.0,32.0,-100.00,WNW,286,0.0,0.0,100,0.01,,,0.03,0.000000,,2013-02-02 17:02:00,
2013-02-02 08:11:00,32.0,32.0,-100.00,WNW,286,0.0,0.0,100,0.01,,,0.03,0.000000,,2013-02-02 17:11:00,
2013-02-02 08:21:00,32.0,32.0,-100.00,WNW,286,0.0,0.0,100,0.01,,,0.03,0.000000,,2013-02-02 17:21:00,
2013-02-02 11:42:00,32.0,32.0,-100.00,West,270,0.0,0.0,100,-99.99,,,0.03,33.000000,,2013-02-02 20:42:00,
2013-02-02 11:52:00,32.0,32.0,-100.00,West,270,0.0,0.0,100,-99.99,,,0.03,33.000000,,2013-02-02 20:52:00,
2013-02-02 12:02:00,32.0,32.0,-100.00,West,270,0.0,0.0,100,-99.99,,,0.03,33.000000,,2013-02-02 21:02:00,
2013-02-02 12:11:00,32.0,32.0,-100.00,West,270,0.0,0.0,100,-99.99,,,0.03,33.000000,,2013-02-02 21:11:00,
2013-02-02 12:21:00,32.0,32.0,-100.00,West,270,0.0,0.0,100,-99.99,,,0.03,33.000000,,2013-02-02 21:21:00,
2013-02-02 12:42:00,32.0,32.0,-100.00,SW,229,0.0,0.0,100,0.00,,,0.01,28.000000,,2013-02-02 21:42:00,
2013-02-02 12:52:00,32.0,32.0,-100.00,SW,229,0.0,0.0,100,0.00,,,0.01,28.000000,,2013-02-02 21:52:00,
2013-02-02 13:02:00,32.0,32.0,-100.00,SW,229,0.0,0.0,100,0.00,,,0.01,28.000000,,2013-02-02 22:02:00,
2013-02-02 13:11:00,32.0,32.0,-100.00,SW,229,0.0,0.0,100,0.00,,,0.01,28.000000,,2013-02-02 22:11:00,
2013-02-02 13:21:00,32.0,32.0,-100.00,SW,229,0.0,0.0,100,0.00,,,0.01,28.000000,,2013-02-02 22:21:00,
2013-02-02 13:42:00,32.0,32.0,-100.00,West,263,0.0,2.0,100,0.01,,,0.01,46.000000,,2013-02-02 22:42:00,
2013-02-02 13:52:00,32.0,32.0,-100.00,West,263,0.0,2.0,100,0.01,,,0.01,46.000000,,2013-02-02 22:52:00,
2013-02-02 14:01:00,32.0,32.0,-100.00,West,263,0.0,2.0,100,0.01,,,0.01,46.000000,,2013-02-02 23:01:00,
2013-02-02 14:11:00,32.0,32.0,-100.00,West,263,0.0,2.0,100,0.01,,,0.01,46.000000,,2013-02-02 23:11:00,
2013-02-02 14:21:00,32.0,32.0,-100.00,West,263,0.0,2.0,100,0.01,,,0.01,46.000000,,2013-02-02 23:21:00,
2013-02-02 14:42:00,32.0,32.0,-100.00,SW,232,0.0,3.0,100,-99.99,,,-99.99,30.000000,,2013-02-02 23:42:00,
2013-02-02 14:52:00,32.0,32.0,-100.00,SW,232,0.0,3.0,100,-99.99,,,-99.99,30.000000,,2013-02-02 23:52:00,
2013-02-02 15:01:00,32.0,32.0,-100.00,SW,232,0.0,3.0,100,-99.99,,,-99.99,30.000000,,2013-02-03 00:01:00,
2013-02-02 15:11:00,32.0,32.0,-100.00,SW,232,0.0,3.0,100,-99.99,,,-99.99,30.000000,,2013-02-03 00:11:00,
2013-02-02 15:21:00,32.0,32.0,-100.00,SW,232,0.0,3.0,100,-99.99,,,-99.99,30.000000,,2013-02-03 00:21:00,
2013-02-02 15:42:00,32.0,32.0,-100.00,South,176,1.0,3.0,100,0.00,,,0.01,40.000000,,2013-02-03 00:42:00,
2013-02-02 15:52:00,32.0,32.0,-100.00,South,176,1.0,3.0,100,0.00,,,0.01,40.000000,,2013-02-03 00:52:00,
2013-02-02 16:02:00,32.0,32.0,-100.00,South,176,1.0,3.0,100,0.00,,,0.01,40.000000,,2013-02-03 01:02:00,
2013-02-02 16:11:00,32.0,32.0,-100.00,South,176,1.0,3.0,100,0.00,,,0.01,40.000000,,2013-02-03 01:11:00,
2013-02-02 16:21:00,32.0,32.0,-100.00,South,176,1.0,3.0,100,0.00,,,0.01,40.000000,,2013-02-03 01:21:00,
2013-02-02 16:42:00,32.0,32.0,-100.00,South,190,1.0,2.0,100,-99.99,,,0.01,11.000000,,2013-02-03 01:42:00,
2013-02-02 16:52:00,32.0,32.0,-100.00,South,190,1.0,2.0,100,-99.99,,,0.01,11.000000,,2013-02-03 01:52:00,
2013-02-02 17:01:00,32.0,32.0,-100.00,South,190,1.0,2.0,100,-99.99,,,0.01,11.000000,,2013-02-03 02:01:00,
2013-02-02 17:11:00,32.0,32.0,-100.00,South,190,1.0,2.0,100,-99.99,,,0.01,11.000000,,2013-02-03 02:11:00,
2013-02-02 17:21:00,32.0,32.0,-100.00,South,190,1.0,2.0,100,-99.99,,,0.01,11.000000,,2013-02-03 02:21:00,
2013-02-02 17:42:00,32.0,32.0,-100.00,SSE,151,1.0,3.0,100,0.00,,,0.02,1.000000,,2013-02-03 02:42:00,
2013-02-02 17:52:00,32.0,32.0,-100.00,SSE,151,1.0,3.0,100,0.00,,,0.02,1.000000,,2013-02-03 02:52:00,
2013-02-02 18:02:00,32.0,32.0,-100.00,SSE,151,1.0,3.0,100,0.00,,,0.02,1.000000,,2013-02-03 03:02:00,
2013-02-02 18:11:00,32.0,32.0,-100.00,SSE,151,1.0,3.0,100,0.00,,,0.02,1.000000,,2013-02-03 03:11:00,
2013-02-02 18:21:00,32.0,32.0,-100.00,SSE,151,1.0,3.0,100,0.00,,,0.02,1.000000,,2013-02-03 03:21:00,
2013-02-02 18:42:00,32.0,32.0,-100.00,SSE,152,1.0,2.0,100,0.00,,,0.02,0.000000,,2013-02-03 03:42:00,
2013-02-02 18:52:00,32.0,32.0,-100.00,SSE,152,1.0,2.0,100,0.00,,,0.02,0.000000,,2013-02-03 03:52:00,
2013-02-02 19:01:00,32.0,32.0,-100.00,SSE,152,1.0,2.0,100,0.00,,,0.02,0.000000,,2013-02-03 04:01:00,
2013-02-02 19:11:00,32.0,32.0,-100.00,SSE,152,1.0,2.0,100,0.00,,,0.02,0.000000,,2013-02-03 04:11:00,
2013-02-02 19:21:00,32.0,32.0,-100.00,SSE,152,1.0,2.0,100,0.00,,,0.02,0.000000,,2013-02-03 04:21:00,
2013-02-02 19:42:00,32.0,32.0,-100.00,SSE,167,1.0,3.0,100,0.00,,,0.02,0.000000,,2013-02-03 04:42:00,
2013-02-02 19:52:00,32.0,32.0,-100.00,SSE,167,1.0,3.0,100,0.00,,,0.02,0.000000,,2013-02-03 04:52:00,
2013-02-02 20:03:00,32.0,32.0,-100.00,SSE,167,1.0,3.0,100,0.00,,,0.02,0.000000,,2013-02-03 05:03:00,
2013-02-02 20:11:00,32.0,32.0,-100.00,SSE,167,1.0,3.0,100,0.00,,,0.02,0.000000,,2013-02-03 05:11:00,
2013-02-02 20:22:00,32.0,32.0,-100.00,SSE,167,1.0,3.0,100,0.00,,,0.02,0.000000,,2013-02-03 05:22:00,
2013-02-02 20:42:00,32.0,32.0,-100.00,SSE,149,2.0,5.0,100,0.00,,,0.02,0.000000,,2013-02-03 05:42:00,
2013-02-02 20:52:00,32.0,32.0,-100.00,SSE,149,2.0,5.0,100,0.00,,,0.02,0.000000,,2013-02-03 05:52:00,
2013-02-02 21:02:00,32.0,32.0,-100.00,SSE,149,2.0,5.0,100,0.00,,,0.02,0.000000,,2013-02-03 06:02:00,
2013-02-02 21:11:00,32.0,32.0,-100.00,SSE,149,2.0,5.0,100,0.00,,,0.02,0.000000,,2013-02-03 06:11:00,
2013-02-02 21:21:00,32.0,32.0,-100.00,SSE,149,2.0,5.0,100,0.00,,,0.02,0.000000,,2013-02-03 06:21:00,
2013-02-02 21:42:00,32.0,32.0,-100.00,SE,139,2.0,6.0,100,-99.99,,,0.01,0.000000,,2013-02-03 06:42:00,
2013-02-02 21:52:00,32.0,32.0,-100.00,SE,139,2.0,6.0,100,-99.99,,,0.01,0.000000,,2013-02-03 06:52:00,
2013-02-02 22:01:00,32.0,32.0,-100.00,SE,139,2.0,6.0,100,-99.99,,,0.01,0.000000,,2013-02-03 07:01:00,
2013-02-02 22:11:00,32.0,32.0,-100.00,SE,139,2.0,6.0,100,-99.99,,,0.01,0.000000,,2013-02-03 07:11:00,
2013-02-02 22:21:00,32.0,32.0,-100.00,SE,139,2.0,6.0,100,-99.99,,,0.01,0.000000,,2013-02-03 07:21:00,
2013-02-02 22:42:00,32.0,32.0,-100.00,SSE,154,2.0,4.0,100,-99.99,,,0.00,0.000000,,2013-02-03 07:42:00,
2013-02-02 22:52:00,32.0,32.0,-100.00,SSE,154,2.0,4.0,100,-99.99,,,0.00,0.000000,,2013-02-03 07:52:00,
2013-02-02 23:01:00,32.0,32.0,-100.00,SSE,154,2.0,4.0,100,-99.99,,,0.00,0.000000,,2013-02-03 08:01:00,
2013-02-02 23:11:00,32.0,32.0,-100.00,SSE,154,2.0,4.0,100,-99.99,,,0.00,0.000000,,2013-02-03 08:11:00,
2013-02-02 23:22:00,32.0,32.0,-100.00,SSE,154,2.0,4.0,100,-99.99,,,0.00,0.000000,,2013-02-03 08:22:00,
2013-02-02 23:42:00,32.0,32.0,-100.00,SSE,150,1.0,3.0,100,0.00,,,0.00,0.000000,,2013-02-03 08:42:00,
2013-02-02 23:52:00,32.0,32.0,-100.00,SSE,150,1.0,3.0,100,0.00,,,0.00,0.000000,,2013-02-03 08:52:00,